עמוד ראשי
METAR-TAF:

METAR-TAF

שדות תעופה :

Sumburgh, איי שטלנד, סקוטלנד

קו רוחב: 59-53N, קו אורך: 001-18W, גובה: 5מטר

תצפית מזג אוויר נוכחית

הדו"ח נערך לפני 26דקות, בשעה 04:50 UTC
רוח רגועה
טמפרטורת 9 צלסיוס
לחות 93%
לחץ 1020 hPa
ראות 10 קילומטר או יותר

METAR: EGPB 200450Z AUTO 00000KT 9999 NCD 09/08 Q1020

זמן: 06:16 (05:16 UTC)

תחזית

הדו"ח נערך לפני 3 שעות ו 21דקות, בשעה 01:55 UTC
תחזית בתוקף מ 20 ב 03 UTC עד 20 ב 12 UTC
רוח 5קשר מכיוון מזרח/דרום-מזרח
ראות 10 קילומטר או יותר
עננים פזורים בגובה 1200רגל
הסתברות 30% :
זמנית מ -
20 ב 03 UTC עד 20 ב 07 UTC
עננים בינוניים בגובה 1200רגל

TAF: EGPB 200155Z 2003/2012 12005KT 9999 SCT012 PROB30 TEMPO 2003/2007 BKN012

תצפיות ותחזיות מזג אוויר לגבי יותר מ- 4,000 שדות תעופה ברחבי העולם. דוחות METAR ו- TAF.

התחנות הזמינות מסומנות בנקודות צהובות ואדומות על גבי המפה.

העבר את העכבר לנקודה הצבעונית על מנת לראות את שם התחנה.

לאחר מכן, לחץ כדי לראות את תוכן ואת תחזיות מזג האוויר.

כדי לשנות את המפה: לחץ על הכפתורים הירוקים עם הפלוס השחור כדי להתקרב; על הכפתור הירוק עם המקף כדי להתרחק; או בחיצים הירוקים למפות סמוכות.


METAR-TAF: